createdAt,value
2022-09-15T00:00:35.918Z,14.75
2022-09-15T00:02:57.813Z,14.73
2022-09-15T00:05:19.906Z,14.72
2022-09-15T00:07:41.825Z,14.72
2022-09-15T00:10:06.601Z,14.70
2022-09-15T00:12:28.468Z,14.72
2022-09-15T00:14:50.301Z,14.71
2022-09-15T00:17:12.240Z,14.70
2022-09-15T00:19:34.092Z,14.67
2022-09-15T00:21:55.876Z,14.65
2022-09-15T00:24:17.652Z,14.66
2022-09-15T00:26:39.529Z,14.67
2022-09-15T00:29:02.562Z,14.67
2022-09-15T00:31:27.547Z,14.68
2022-09-15T00:33:52.874Z,14.69
2022-09-15T00:36:15.950Z,14.70
2022-09-15T00:38:38.720Z,14.71
2022-09-15T00:41:01.834Z,14.74
2022-09-15T00:43:51.189Z,14.77
2022-09-15T00:46:15.041Z,14.78
2022-09-15T00:48:44.241Z,14.81
2022-09-15T00:51:10.265Z,14.82
2022-09-15T00:53:35.550Z,14.85
2022-09-15T00:55:59.462Z,14.85
2022-09-15T00:58:33.388Z,14.86
2022-09-15T01:01:02.082Z,14.90
2022-09-15T01:03:27.224Z,14.92
2022-09-15T01:05:57.845Z,14.95
2022-09-15T01:08:33.271Z,14.98
2022-09-15T01:10:56.745Z,15.00
2022-09-15T01:13:18.798Z,15.01
2022-09-15T01:15:56.488Z,15.03
2022-09-15T01:18:47.099Z,15.05
2022-09-15T01:21:36.639Z,15.05
2022-09-15T01:24:35.106Z,15.07
2022-09-15T01:27:30.895Z,15.05
2022-09-15T01:30:02.451Z,15.02
2022-09-15T01:33:00.945Z,15.00
2022-09-15T01:36:03.744Z,15.01
2022-09-15T01:39:01.054Z,14.97
2022-09-15T01:41:48.332Z,14.96
2022-09-15T01:44:22.236Z,14.94
2022-09-15T01:46:49.772Z,14.95
2022-09-15T01:49:19.426Z,14.96
2022-09-15T01:51:46.024Z,14.99
2022-09-15T01:54:10.371Z,15.04
2022-09-15T01:56:32.532Z,15.07
2022-09-15T01:58:54.543Z,15.09
2022-09-15T02:01:32.142Z,15.15
2022-09-15T02:04:15.784Z,15.18
2022-09-15T02:07:11.742Z,15.19
2022-09-15T02:09:51.035Z,15.22
2022-09-15T02:12:27.445Z,15.22
2022-09-15T02:15:16.639Z,15.22
2022-09-15T02:17:48.239Z,15.22
2022-09-15T02:20:25.390Z,15.22
2022-09-15T02:22:55.748Z,15.23
2022-09-15T02:25:28.983Z,15.24
2022-09-15T02:27:57.395Z,15.25
2022-09-15T02:30:21.395Z,15.25
2022-09-15T02:32:56.224Z,15.26
2022-09-15T02:35:18.558Z,15.26
2022-09-15T02:37:40.918Z,15.27
2022-09-15T02:40:04.786Z,15.24
2022-09-15T02:42:32.752Z,15.23
2022-09-15T02:44:55.546Z,15.20
2022-09-15T02:47:17.333Z,15.20
2022-09-15T02:49:39.151Z,15.18
2022-09-15T02:52:00.986Z,15.16
2022-09-15T02:54:22.766Z,15.14
2022-09-15T02:56:45.148Z,15.12
2022-09-15T02:59:07.753Z,15.09
2022-09-15T03:01:32.239Z,15.07
2022-09-15T03:03:53.934Z,15.05
2022-09-15T03:06:18.521Z,15.02
2022-09-15T03:08:40.233Z,15.00
2022-09-15T03:11:02.003Z,14.99
2022-09-15T03:13:24.017Z,14.97
2022-09-15T03:15:45.836Z,14.97
2022-09-15T03:18:07.672Z,14.96
2022-09-15T03:20:30.315Z,14.96
2022-09-15T03:22:52.139Z,14.95
2022-09-15T03:25:14.182Z,14.94
2022-09-15T03:27:36.581Z,14.94
2022-09-15T03:29:58.621Z,14.93
2022-09-15T03:32:20.383Z,14.93
2022-09-15T03:34:42.448Z,14.93
2022-09-15T03:37:04.455Z,14.94
2022-09-15T03:39:26.525Z,14.92
2022-09-15T03:41:48.288Z,14.92
2022-09-15T03:44:10.112Z,14.91
2022-09-15T03:46:32.146Z,14.89
2022-09-15T03:48:53.915Z,14.89
2022-09-15T03:51:15.837Z,14.89
2022-09-15T03:53:41.991Z,14.91
2022-09-15T03:56:18.350Z,14.92
2022-09-15T03:58:40.195Z,14.93
2022-09-15T04:01:02.014Z,14.91
2022-09-15T04:03:23.920Z,14.93
2022-09-15T04:05:45.700Z,14.94
2022-09-15T04:08:09.497Z,14.94
2022-09-15T04:10:31.752Z,14.94
2022-09-15T04:12:54.227Z,14.95
2022-09-15T04:15:16.150Z,14.96
2022-09-15T04:17:37.953Z,14.97
2022-09-15T04:20:01.255Z,14.96
2022-09-15T04:22:23.126Z,14.97
2022-09-15T04:24:45.132Z,14.97
2022-09-15T04:27:07.169Z,14.98
2022-09-15T04:29:28.989Z,14.99
2022-09-15T04:31:53.021Z,15.01
2022-09-15T04:34:14.900Z,15.00
2022-09-15T04:36:37.324Z,15.02
2022-09-15T04:38:59.239Z,15.04
2022-09-15T04:41:22.131Z,15.04
2022-09-15T04:43:44.320Z,15.08
2022-09-15T04:46:08.432Z,15.09
2022-09-15T04:48:31.821Z,15.12
2022-09-15T04:50:54.727Z,15.14
2022-09-15T04:53:17.320Z,15.16
2022-09-15T04:55:39.504Z,15.16
2022-09-15T04:58:02.703Z,15.19
2022-09-15T05:00:27.085Z,15.19
2022-09-15T05:02:49.035Z,15.19
2022-09-15T05:05:10.834Z,15.23
2022-09-15T05:07:32.687Z,15.24
2022-09-15T05:09:54.654Z,15.23
2022-09-15T05:12:17.440Z,15.23
2022-09-15T05:14:39.278Z,15.23
2022-09-15T05:17:01.267Z,15.22
2022-09-15T05:19:23.545Z,15.23
2022-09-15T05:21:45.444Z,15.23
2022-09-15T05:24:07.493Z,15.22
2022-09-15T05:26:30.106Z,15.20
2022-09-15T05:28:52.460Z,15.18
2022-09-15T05:31:27.978Z,15.14
2022-09-15T05:33:52.723Z,15.11
2022-09-15T05:36:15.860Z,15.10
2022-09-15T05:38:37.811Z,15.06
2022-09-15T05:41:04.471Z,15.04
2022-09-15T05:43:26.405Z,15.01
2022-09-15T05:45:55.224Z,15.02
2022-09-15T05:48:17.015Z,15.03
2022-09-15T05:50:39.578Z,15.05
2022-09-15T05:53:01.373Z,15.05
2022-09-15T05:55:23.221Z,15.07
2022-09-15T05:57:44.980Z,15.09
2022-09-15T06:00:07.899Z,15.11
2022-09-15T06:02:33.830Z,15.14
2022-09-15T06:04:55.631Z,15.16
2022-09-15T06:07:17.503Z,15.21
2022-09-15T06:09:39.488Z,15.22
2022-09-15T06:12:01.531Z,15.26
2022-09-15T06:14:23.950Z,15.29
2022-09-15T06:16:45.899Z,15.33
2022-09-15T06:19:07.784Z,15.37
2022-09-15T06:21:31.455Z,15.41
2022-09-15T06:23:55.569Z,15.47
2022-09-15T06:26:19.342Z,15.50
2022-09-15T06:28:48.449Z,15.53
2022-09-15T06:31:13.356Z,15.56
2022-09-15T06:33:35.143Z,15.58
2022-09-15T06:35:59.779Z,15.59
2022-09-15T06:38:21.677Z,15.62
2022-09-15T06:40:43.442Z,15.66
2022-09-15T06:43:05.514Z,15.72
2022-09-15T06:45:27.351Z,15.76
2022-09-15T06:48:13.358Z,15.80
2022-09-15T06:50:34.126Z,15.83
2022-09-15T06:52:55.951Z,15.89
2022-09-15T06:55:17.940Z,15.94
2022-09-15T06:57:39.722Z,15.98
2022-09-15T07:00:02.561Z,16.03
2022-09-15T07:02:24.563Z,16.08
2022-09-15T07:04:46.522Z,16.11
2022-09-15T07:07:08.579Z,16.14
2022-09-15T07:09:30.498Z,16.16
2022-09-15T07:11:52.821Z,16.20
2022-09-15T07:14:14.786Z,16.21
2022-09-15T07:16:36.682Z,16.24
2022-09-15T07:19:01.332Z,16.27
2022-09-15T07:21:23.077Z,16.25
2022-09-15T07:23:45.100Z,16.23
2022-09-15T07:26:09.926Z,16.27
2022-09-15T07:28:31.757Z,16.31
2022-09-15T07:30:53.583Z,16.33
2022-09-15T07:33:15.642Z,16.38
2022-09-15T07:35:45.134Z,16.45
2022-09-15T07:38:06.899Z,16.51
2022-09-15T07:40:29.240Z,16.55
2022-09-15T07:42:51.080Z,16.64
2022-09-15T07:45:12.952Z,16.69
2022-09-15T07:47:34.833Z,16.77
2022-09-15T07:49:56.640Z,16.81
2022-09-15T07:52:18.509Z,16.87
2022-09-15T07:54:40.349Z,16.87
2022-09-15T07:57:02.298Z,16.89
2022-09-15T07:59:24.095Z,16.90
2022-09-15T08:01:46.906Z,16.92
2022-09-15T08:04:08.771Z,16.90
2022-09-15T08:06:30.731Z,16.92
2022-09-15T08:08:57.737Z,16.94
2022-09-15T08:11:22.561Z,16.96
2022-09-15T08:13:49.621Z,16.98
2022-09-15T08:16:16.071Z,17.02
2022-09-15T08:18:42.341Z,17.03
2022-09-15T08:21:07.128Z,17.07
2022-09-15T08:23:28.924Z,17.16
2022-09-15T08:25:51.797Z,17.23
2022-09-15T08:28:14.109Z,17.30
2022-09-15T08:30:36.152Z,17.36
2022-09-15T08:32:58.005Z,17.42
2022-09-15T08:35:20.412Z,17.49
2022-09-15T08:37:42.282Z,17.57
2022-09-15T08:40:04.739Z,17.65
2022-09-15T08:42:29.134Z,17.68
2022-09-15T08:44:59.751Z,17.70
2022-09-15T08:47:46.748Z,17.74
2022-09-15T08:50:28.383Z,17.75
2022-09-15T08:53:02.341Z,17.76
2022-09-15T08:55:48.923Z,17.81
2022-09-15T08:58:20.351Z,17.88
2022-09-15T09:00:46.806Z,17.93
2022-09-15T09:04:15.366Z,17.96
2022-09-15T09:07:00.630Z,17.93
2022-09-15T09:09:48.394Z,17.88
2022-09-15T09:12:23.665Z,17.88
2022-09-15T09:15:43.381Z,17.88
2022-09-15T09:18:41.885Z,17.84
2022-09-15T09:21:22.343Z,17.79
2022-09-15T09:23:54.258Z,17.79
2022-09-15T09:26:16.651Z,17.79
2022-09-15T09:29:08.286Z,17.78
2022-09-15T09:31:30.249Z,17.72
2022-09-15T09:34:06.191Z,17.70
2022-09-15T09:36:28.339Z,17.67
2022-09-15T09:38:51.042Z,17.65
2022-09-15T09:41:25.326Z,17.58
2022-09-15T09:43:49.943Z,17.52
2022-09-15T09:46:17.933Z,17.53
2022-09-15T09:48:46.445Z,17.53
2022-09-15T09:51:59.917Z,17.59
2022-09-15T09:54:27.265Z,17.60
2022-09-15T09:56:52.016Z,17.61
2022-09-15T09:59:43.246Z,17.65
2022-09-15T10:02:11.126Z,17.73
2022-09-15T10:04:32.928Z,17.80
2022-09-15T10:06:56.446Z,17.87
2022-09-15T10:09:19.932Z,17.92
2022-09-15T10:11:52.147Z,17.95
2022-09-15T10:14:42.006Z,18.03
2022-09-15T10:17:15.527Z,18.09
2022-09-15T10:19:47.969Z,18.15
2022-09-15T10:22:33.553Z,18.15
2022-09-15T10:24:55.467Z,18.27
2022-09-15T10:27:34.870Z,18.44
2022-09-15T10:30:16.304Z,18.63
2022-09-15T10:32:38.881Z,18.84
2022-09-15T10:35:11.504Z,18.80
2022-09-15T10:38:11.626Z,18.73
2022-09-15T10:40:54.101Z,18.56
2022-09-15T10:43:42.490Z,18.35
2022-09-15T10:46:39.260Z,18.05
2022-09-15T10:49:37.348Z,17.73
2022-09-15T10:52:34.187Z,17.54
2022-09-15T10:55:52.638Z,17.43
2022-09-15T10:58:43.536Z,17.29
2022-09-15T11:01:29.076Z,17.20
2022-09-15T11:04:15.533Z,17.14
2022-09-15T11:06:51.639Z,17.13
2022-09-15T11:09:13.410Z,17.13
2022-09-15T11:11:54.597Z,17.13
2022-09-15T11:14:44.160Z,17.10
2022-09-15T11:17:37.511Z,17.09
2022-09-15T11:20:21.953Z,17.15
2022-09-15T11:22:58.222Z,17.24
2022-09-15T11:25:25.699Z,17.26
2022-09-15T11:27:53.986Z,17.30
2022-09-15T11:30:29.602Z,17.35
2022-09-15T11:33:13.179Z,17.34
2022-09-15T11:35:45.190Z,17.37
2022-09-15T11:38:32.093Z,17.43
2022-09-15T11:41:02.942Z,17.50
2022-09-15T11:43:37.633Z,17.54
2022-09-15T11:46:25.294Z,17.63
2022-09-15T11:49:08.769Z,17.75
2022-09-15T11:51:41.884Z,17.88
2022-09-15T11:54:21.295Z,18.21
2022-09-15T11:56:47.294Z,18.42
2022-09-15T11:59:39.575Z,18.69
2022-09-15T12:02:39.197Z,18.96
2022-09-15T12:05:15.053Z,19.18
2022-09-15T12:07:59.702Z,19.28
2022-09-15T12:10:31.310Z,19.35
2022-09-15T12:12:54.381Z,19.36
2022-09-15T12:15:27.119Z,19.39
2022-09-15T12:18:06.636Z,19.58
2022-09-15T12:20:53.426Z,19.71
2022-09-15T12:23:25.369Z,19.92
2022-09-15T12:26:17.688Z,20.10
2022-09-15T12:28:54.180Z,20.15
2022-09-15T12:31:40.468Z,20.12
2022-09-15T12:34:24.773Z,20.13
2022-09-15T12:36:52.970Z,20.04
2022-09-15T12:39:43.440Z,19.99
2022-09-15T12:42:21.334Z,20.00
2022-09-15T12:44:44.992Z,20.06
2022-09-15T12:47:21.744Z,20.06
2022-09-15T12:49:48.118Z,20.12
2022-09-15T12:52:12.106Z,20.16
2022-09-15T12:54:38.714Z,20.32
2022-09-15T12:57:02.312Z,20.24
2022-09-15T12:59:28.021Z,20.21
2022-09-15T13:01:50.844Z,20.19
2022-09-15T13:04:43.601Z,20.18
2022-09-15T13:07:21.124Z,20.21
2022-09-15T13:09:45.604Z,20.13
2022-09-15T13:12:08.147Z,20.06
2022-09-15T13:14:42.071Z,19.99
2022-09-15T13:17:22.780Z,19.97
2022-09-15T13:19:50.200Z,19.97
2022-09-15T13:22:16.506Z,20.07
2022-09-15T13:25:05.813Z,20.08
2022-09-15T13:27:45.197Z,20.02
2022-09-15T13:30:44.254Z,19.98
2022-09-15T13:40:05.134Z,20.37
2022-09-15T13:43:40.835Z,20.42
2022-09-15T13:46:31.177Z,20.43
2022-09-15T13:48:59.106Z,20.33
2022-09-15T13:51:29.961Z,20.15
2022-09-15T13:54:06.180Z,20.31
2022-09-15T13:56:33.782Z,20.53
2022-09-15T13:59:14.122Z,20.58
2022-09-15T14:01:40.674Z,20.62
2022-09-15T14:04:12.719Z,20.59
2022-09-15T14:06:39.212Z,20.50
2022-09-15T14:09:13.562Z,20.47
2022-09-15T14:11:38.163Z,20.36
2022-09-15T14:14:00.916Z,20.30
2022-09-15T14:16:33.923Z,20.44
2022-09-15T14:18:58.601Z,20.62
2022-09-15T14:21:23.299Z,20.80
2022-09-15T14:23:52.061Z,20.97
2022-09-15T14:26:18.693Z,21.01
2022-09-15T14:28:48.453Z,20.83
2022-09-15T14:31:10.441Z,20.57
2022-09-15T14:33:38.278Z,20.33
2022-09-15T14:36:00.445Z,20.12
2022-09-15T14:38:25.837Z,19.93
2022-09-15T14:40:53.398Z,19.99
2022-09-15T14:43:35.861Z,19.85
2022-09-15T14:46:18.477Z,19.69
2022-09-15T14:48:40.369Z,19.51
2022-09-15T14:51:08.783Z,19.50
2022-09-15T14:53:38.103Z,19.45
2022-09-15T14:56:15.166Z,19.37
2022-09-15T14:58:52.804Z,19.25
2022-09-15T15:01:30.492Z,19.18
2022-09-15T15:04:19.338Z,19.12
2022-09-15T15:06:55.887Z,19.05
2022-09-15T15:09:38.935Z,18.97
2022-09-15T15:12:14.535Z,18.94
2022-09-15T15:14:36.803Z,18.87
2022-09-15T15:17:05.848Z,18.85
2022-09-15T15:19:41.282Z,18.82
2022-09-15T15:22:13.984Z,18.79
2022-09-15T15:24:42.962Z,18.79
2022-09-15T15:27:33.241Z,18.78
2022-09-15T15:29:55.086Z,18.79
2022-09-15T15:32:22.275Z,18.83
2022-09-15T15:34:53.665Z,18.85
2022-09-15T15:37:27.589Z,18.84
2022-09-15T15:39:49.704Z,18.79
2022-09-15T15:42:16.237Z,18.76
2022-09-15T15:44:38.161Z,18.72
2022-09-15T15:47:23.776Z,18.68
2022-09-15T15:50:11.880Z,18.62
2022-09-15T15:52:27.366Z,18.60
2022-09-15T15:54:49.123Z,18.56
2022-09-15T15:57:30.310Z,18.53
2022-09-15T15:59:59.421Z,18.49
2022-09-15T16:02:23.497Z,18.48
2022-09-15T16:04:45.324Z,18.47
2022-09-15T16:07:16.606Z,18.46
2022-09-15T16:09:38.896Z,18.45
2022-09-15T16:12:00.926Z,18.43
2022-09-15T16:14:22.962Z,18.42
2022-09-15T16:16:45.017Z,18.40
2022-09-15T16:19:07.861Z,18.37
2022-09-15T16:21:38.812Z,18.31
2022-09-15T16:24:00.584Z,18.25
2022-09-15T16:26:24.963Z,18.22
2022-09-15T16:28:46.935Z,18.20
2022-09-15T16:31:13.163Z,18.17
2022-09-15T16:33:38.086Z,18.13
2022-09-15T16:36:06.909Z,18.12
2022-09-15T16:38:28.729Z,18.09
2022-09-15T16:40:51.264Z,18.06
2022-09-15T16:43:16.308Z,17.96
2022-09-15T16:45:40.835Z,17.93
2022-09-15T16:48:04.050Z,17.89
2022-09-15T16:50:26.765Z,17.88
2022-09-15T16:52:48.674Z,17.84
2022-09-15T16:55:27.239Z,17.81
2022-09-15T16:57:49.877Z,17.72
2022-09-15T17:00:12.842Z,17.68
2022-09-15T17:02:34.733Z,17.65
2022-09-15T17:04:56.496Z,17.62
2022-09-15T17:07:18.609Z,17.58
2022-09-15T17:09:40.916Z,17.53
2022-09-15T17:12:04.200Z,17.48
2022-09-15T17:14:26.018Z,17.44
2022-09-15T17:16:52.672Z,17.40
2022-09-15T17:19:14.462Z,17.36
2022-09-15T17:21:36.671Z,17.35
2022-09-15T17:23:58.486Z,17.33
2022-09-15T17:26:28.838Z,17.32
2022-09-15T17:28:52.912Z,17.28
2022-09-15T17:31:20.533Z,17.26
2022-09-15T17:33:43.776Z,17.21
2022-09-15T17:36:05.997Z,17.16
2022-09-15T17:38:28.111Z,17.09
2022-09-15T17:40:51.331Z,17.02
2022-09-15T17:43:23.203Z,16.94
2022-09-15T17:45:45.691Z,16.88
2022-09-15T17:48:07.700Z,16.78
2022-09-15T17:50:33.650Z,16.71
2022-09-15T17:52:56.463Z,16.63
2022-09-15T17:55:27.743Z,16.55
2022-09-15T17:57:50.474Z,16.46
2022-09-15T18:00:14.152Z,16.39
2022-09-15T18:02:36.129Z,16.34
2022-09-15T18:04:58.286Z,16.30
2022-09-15T18:07:20.208Z,16.20
2022-09-15T18:09:42.130Z,16.12
2022-09-15T18:12:04.431Z,16.06
2022-09-15T18:14:26.158Z,16.02
2022-09-15T18:16:48.018Z,15.97
2022-09-15T18:19:09.820Z,15.92
2022-09-15T18:21:31.740Z,15.84
2022-09-15T18:23:53.618Z,15.79
2022-09-15T18:26:15.501Z,15.75
2022-09-15T18:28:37.257Z,15.73
2022-09-15T18:30:59.071Z,15.70
2022-09-15T18:33:24.554Z,15.68
2022-09-15T18:35:49.137Z,15.65
2022-09-15T18:38:11.663Z,15.62
2022-09-15T18:40:33.703Z,15.56
2022-09-15T18:42:56.593Z,15.56
2022-09-15T18:45:19.980Z,15.54
2022-09-15T18:47:44.953Z,15.52
2022-09-15T18:50:07.349Z,15.49
2022-09-15T18:52:29.493Z,15.48
2022-09-15T18:54:52.354Z,15.45
2022-09-15T18:57:14.186Z,15.41
2022-09-15T18:59:36.014Z,15.39
2022-09-15T19:01:57.903Z,15.36
2022-09-15T19:04:19.749Z,15.35
2022-09-15T19:06:41.927Z,15.30
2022-09-15T19:09:03.857Z,15.28
2022-09-15T19:11:28.851Z,15.25
2022-09-15T19:13:53.467Z,15.22
2022-09-15T19:16:15.454Z,15.17
2022-09-15T19:18:37.984Z,15.16
2022-09-15T19:21:11.780Z,15.18
2022-09-15T19:23:35.978Z,15.15
2022-09-15T19:25:57.794Z,15.15
2022-09-15T19:28:19.591Z,15.15
2022-09-15T19:30:41.354Z,15.14
2022-09-15T19:33:03.398Z,15.14
2022-09-15T19:35:25.231Z,15.11
2022-09-15T19:37:47.354Z,15.09
2022-09-15T19:40:13.965Z,15.07
2022-09-15T19:42:38.519Z,15.06
2022-09-15T19:45:00.249Z,15.03
2022-09-15T19:47:22.064Z,15.02
2022-09-15T19:49:44.281Z,15.04
2022-09-15T19:52:06.593Z,15.07
2022-09-15T19:54:30.977Z,15.10
2022-09-15T19:56:53.149Z,15.08
2022-09-15T19:59:15.070Z,15.06
2022-09-15T20:01:37.109Z,15.04
2022-09-15T20:03:59.466Z,15.03
2022-09-15T20:06:22.111Z,15.03
2022-09-15T20:08:45.806Z,15.01
2022-09-15T20:11:09.297Z,14.99
2022-09-15T20:13:31.404Z,15.01
2022-09-15T20:16:02.689Z,14.99
2022-09-15T20:18:25.431Z,14.98
2022-09-15T20:20:47.169Z,14.97
2022-09-15T20:23:09.097Z,14.96
2022-09-15T20:25:30.973Z,14.93
2022-09-15T20:27:52.981Z,14.91
2022-09-15T20:30:14.891Z,14.89
2022-09-15T20:32:36.714Z,14.85
2022-09-15T20:34:58.848Z,14.82
2022-09-15T20:37:22.428Z,14.82
2022-09-15T20:39:47.931Z,14.79
2022-09-15T20:42:09.776Z,14.76
2022-09-15T20:44:31.551Z,14.74
2022-09-15T20:46:53.372Z,14.71
2022-09-15T20:49:15.801Z,14.70
2022-09-15T20:51:37.574Z,14.69
2022-09-15T20:54:02.092Z,14.66
2022-09-15T20:56:28.582Z,14.64
2022-09-15T20:58:55.184Z,14.60
2022-09-15T21:01:24.570Z,14.58
2022-09-15T21:03:47.862Z,14.53
2022-09-15T21:06:14.407Z,14.53
2022-09-15T21:08:37.676Z,14.54
2022-09-15T21:10:59.442Z,14.53
2022-09-15T21:13:24.688Z,14.52
2022-09-15T21:16:02.405Z,14.50
2022-09-15T21:18:35.623Z,14.46
2022-09-15T21:21:10.272Z,14.39
2022-09-15T21:23:40.278Z,14.35
2022-09-15T21:26:07.408Z,14.31
2022-09-15T21:28:30.454Z,14.28
2022-09-15T21:30:53.651Z,14.25
2022-09-15T21:33:15.573Z,14.24
2022-09-15T21:35:37.401Z,14.20
2022-09-15T21:38:00.751Z,14.20
2022-09-15T21:40:22.707Z,14.22
2022-09-15T21:42:44.484Z,14.23
2022-09-15T21:45:07.448Z,14.25
2022-09-15T21:47:30.098Z,14.26
2022-09-15T21:49:51.867Z,14.28
2022-09-15T21:52:13.606Z,14.31
2022-09-15T21:54:35.339Z,14.32
2022-09-15T21:56:57.479Z,14.32
2022-09-15T21:59:19.280Z,14.29
2022-09-15T22:01:41.648Z,14.27
2022-09-15T22:04:10.416Z,14.28
2022-09-15T22:06:35.909Z,14.27
2022-09-15T22:09:00.004Z,14.26
2022-09-15T22:11:23.332Z,14.26
2022-09-15T22:13:45.039Z,14.28
2022-09-15T22:16:17.870Z,14.28
2022-09-15T22:18:41.793Z,14.28
2022-09-15T22:21:22.422Z,14.28
2022-09-15T22:23:46.557Z,14.28
2022-09-15T22:26:16.229Z,14.27
2022-09-15T22:28:39.058Z,14.30
2022-09-15T22:31:03.530Z,14.33
2022-09-15T22:33:25.766Z,14.31
2022-09-15T22:35:47.732Z,14.28
2022-09-15T22:38:09.498Z,14.27
2022-09-15T22:40:31.347Z,14.25
2022-09-15T22:42:53.153Z,14.23
2022-09-15T22:45:15.088Z,14.24
2022-09-15T22:47:36.905Z,14.22
2022-09-15T22:49:58.664Z,14.22
2022-09-15T22:52:21.222Z,14.22
2022-09-15T22:54:43.010Z,14.20
2022-09-15T22:57:05.128Z,14.16
2022-09-15T22:59:27.788Z,14.12
2022-09-15T23:01:49.677Z,14.10
2022-09-15T23:04:11.602Z,14.10
2022-09-15T23:06:34.799Z,14.11
2022-09-15T23:09:00.591Z,14.11
2022-09-15T23:11:24.401Z,14.08
2022-09-15T23:13:46.737Z,14.06
2022-09-15T23:16:09.733Z,14.05
2022-09-15T23:18:32.498Z,14.04
2022-09-15T23:21:09.603Z,14.04
2022-09-15T23:23:31.418Z,14.00
2022-09-15T23:25:53.245Z,13.98
2022-09-15T23:28:14.964Z,13.95
2022-09-15T23:30:38.699Z,13.93
2022-09-15T23:33:00.512Z,13.92
2022-09-15T23:35:22.253Z,13.89
2022-09-15T23:37:44.229Z,13.89
2022-09-15T23:40:06.442Z,13.89
2022-09-15T23:42:28.220Z,13.88
2022-09-15T23:44:50.010Z,13.88
2022-09-15T23:47:11.762Z,13.87
2022-09-15T23:49:33.518Z,13.87
2022-09-15T23:51:55.289Z,13.86
2022-09-15T23:54:17.221Z,13.85
2022-09-15T23:56:39.128Z,13.84
2022-09-15T23:59:00.952Z,13.83
